createdAt,value
2022-08-17T00:01:40.015Z,28.37
2022-08-17T00:04:19.398Z,30.25
2022-08-17T00:06:48.671Z,27.70
2022-08-17T00:09:18.269Z,27.77
2022-08-17T00:12:41.391Z,27.77
2022-08-17T00:14:36.497Z,27.07
2022-08-17T00:17:04.813Z,31.08
2022-08-17T00:19:32.631Z,29.02
2022-08-17T00:22:34.308Z,27.65
2022-08-17T00:24:53.523Z,27.95
2022-08-17T00:27:19.953Z,27.53
2022-08-17T00:29:46.778Z,28.02
2022-08-17T00:33:12.123Z,28.30
2022-08-17T00:35:05.002Z,26.70
2022-08-17T00:37:31.375Z,29.27
2022-08-17T00:39:57.826Z,28.00
2022-08-17T00:42:27.602Z,27.60
2022-08-17T00:44:57.397Z,26.85
2022-08-17T00:47:23.877Z,25.75
2022-08-17T00:49:50.382Z,28.65
2022-08-17T00:52:21.608Z,28.13
2022-08-17T00:54:52.277Z,28.67
2022-08-17T00:57:23.416Z,27.80
2022-08-17T01:00:03.062Z,25.70
2022-08-17T01:02:42.540Z,24.02
2022-08-17T01:05:31.128Z,24.13
2022-08-17T01:08:00.017Z,26.63
2022-08-17T01:10:59.609Z,24.83
2022-08-17T01:13:24.974Z,23.20
2022-08-17T01:15:57.759Z,21.60
2022-08-17T01:18:26.208Z,22.70
2022-08-17T01:20:55.009Z,24.95
2022-08-17T01:23:24.993Z,21.60
2022-08-17T01:25:55.270Z,20.90
2022-08-17T01:28:53.246Z,23.33
2022-08-17T01:31:12.387Z,22.00
2022-08-17T01:33:38.788Z,23.23
2022-08-17T01:36:07.445Z,22.25
2022-08-17T01:38:38.034Z,19.17
2022-08-17T01:41:12.242Z,23.25
2022-08-17T01:43:47.761Z,22.60
2022-08-17T01:46:33.434Z,20.77
2022-08-17T01:49:09.823Z,26.02
2022-08-17T01:51:39.376Z,23.50
2022-08-17T01:54:14.956Z,22.60
2022-08-17T01:56:47.213Z,25.00
2022-08-17T01:59:15.582Z,25.05
2022-08-17T02:01:43.533Z,24.52
2022-08-17T02:04:11.237Z,24.17
2022-08-17T02:06:52.545Z,27.58
2022-08-17T02:09:25.847Z,22.67
2022-08-17T02:11:59.276Z,26.73
2022-08-17T02:14:26.692Z,27.88
2022-08-17T02:16:59.116Z,28.45
2022-08-17T02:19:35.800Z,27.58
2022-08-17T02:22:02.273Z,26.57
2022-08-17T02:24:59.510Z,28.17
2022-08-17T02:27:34.092Z,24.40
2022-08-17T02:30:00.526Z,25.73
2022-08-17T02:32:52.606Z,26.63
2022-08-17T02:35:19.409Z,24.63
2022-08-17T02:37:51.856Z,24.80
2022-08-17T02:40:36.145Z,22.77
2022-08-17T02:43:13.712Z,25.25
2022-08-17T02:46:12.814Z,23.88
2022-08-17T02:48:59.591Z,22.43
2022-08-17T02:51:26.925Z,20.83
2022-08-17T02:54:40.129Z,23.08
2022-08-17T02:56:56.698Z,20.30
2022-08-17T02:59:24.326Z,21.00
2022-08-17T03:01:58.771Z,20.97
2022-08-17T03:04:35.277Z,20.67
2022-08-17T03:07:02.929Z,22.77
2022-08-17T03:09:29.376Z,22.23
2022-08-17T03:12:04.665Z,21.92
2022-08-17T03:14:32.397Z,20.40
2022-08-17T03:16:59.864Z,20.70
2022-08-17T03:19:27.248Z,22.30
2022-08-17T03:21:55.072Z,17.88
2022-08-17T03:24:22.089Z,19.42
2022-08-17T03:26:55.104Z,17.23
2022-08-17T03:29:21.488Z,16.88
2022-08-17T03:31:49.249Z,20.02
2022-08-17T03:34:18.334Z,22.33
2022-08-17T03:36:44.797Z,21.67
2022-08-17T03:39:11.204Z,18.37
2022-08-17T03:41:38.838Z,20.23
2022-08-17T03:44:05.324Z,18.77
2022-08-17T03:46:51.491Z,18.55
2022-08-17T03:49:36.649Z,18.73
2022-08-17T03:52:27.653Z,18.27
2022-08-17T03:55:12.528Z,19.23
2022-08-17T03:57:39.076Z,20.30
2022-08-17T04:00:06.090Z,17.73
2022-08-17T04:02:37.669Z,15.93
2022-08-17T04:05:14.985Z,15.27
2022-08-17T04:07:41.801Z,15.27
2022-08-17T04:10:08.561Z,15.27
2022-08-17T04:12:54.573Z,13.13
2022-08-17T04:15:22.496Z,13.88
2022-08-17T04:17:48.941Z,12.37
2022-08-17T04:20:17.612Z,11.82
2022-08-17T04:23:09.383Z,12.85
2022-08-17T04:25:38.681Z,12.88
2022-08-17T04:28:07.721Z,11.93
2022-08-17T04:30:45.144Z,11.23
2022-08-17T04:33:20.466Z,12.27
2022-08-17T04:35:50.592Z,14.20
2022-08-17T04:38:19.854Z,11.85
2022-08-17T04:41:05.491Z,13.43
2022-08-17T04:43:33.784Z,12.60
2022-08-17T04:46:04.671Z,15.23
2022-08-17T04:48:37.837Z,13.40
2022-08-17T04:51:17.644Z,13.68
2022-08-17T04:53:56.991Z,14.95
2022-08-17T04:56:25.865Z,13.90
2022-08-17T04:58:54.350Z,15.20
2022-08-17T05:01:24.560Z,16.58
2022-08-17T05:03:53.440Z,15.35
2022-08-17T05:06:20.325Z,17.58
2022-08-17T05:08:46.776Z,16.20
2022-08-17T05:11:13.753Z,15.40
2022-08-17T05:13:43.524Z,15.63
2022-08-17T05:16:27.233Z,14.30
2022-08-17T05:18:59.201Z,15.27
2022-08-17T05:21:29.955Z,14.87
2022-08-17T05:23:58.485Z,16.17
2022-08-17T05:26:27.538Z,16.80
2022-08-17T05:29:02.814Z,16.20
2022-08-17T05:31:30.532Z,14.43
2022-08-17T05:34:07.211Z,13.77
2022-08-17T05:36:42.199Z,12.55
2022-08-17T05:39:18.403Z,11.10
2022-08-17T05:41:48.339Z,10.75
2022-08-17T05:44:15.713Z,11.00
2022-08-17T05:46:48.008Z,9.57
2022-08-17T05:49:17.896Z,11.02
2022-08-17T05:52:23.950Z,9.32
2022-08-17T05:55:28.689Z,10.30
2022-08-17T05:58:27.855Z,8.52
2022-08-17T06:01:09.566Z,6.87
2022-08-17T06:03:49.496Z,7.00
2022-08-17T06:06:32.229Z,9.02
2022-08-17T06:09:13.087Z,8.82
2022-08-17T06:12:31.233Z,8.35
2022-08-17T06:15:27.791Z,8.07
2022-08-17T06:18:07.985Z,9.32
2022-08-17T06:20:52.341Z,9.55
2022-08-17T06:23:45.052Z,8.60
2022-08-17T06:26:16.146Z,10.65
2022-08-17T06:28:53.818Z,7.70
2022-08-17T06:31:35.153Z,8.10
2022-08-17T06:34:12.505Z,9.02
2022-08-17T06:36:55.748Z,8.88
2022-08-17T06:39:41.054Z,9.40
2022-08-17T06:43:02.137Z,9.13
2022-08-17T06:45:31.260Z,9.85
2022-08-17T06:48:33.859Z,9.00
2022-08-17T06:51:07.593Z,12.98
2022-08-17T06:53:48.345Z,15.57
2022-08-17T06:56:52.648Z,12.40
2022-08-17T06:59:26.216Z,13.52
2022-08-17T07:02:05.573Z,11.60
2022-08-17T07:04:35.204Z,15.30
2022-08-17T07:07:26.440Z,13.43
2022-08-17T07:10:00.401Z,13.47
2022-08-17T07:12:37.941Z,12.73
2022-08-17T07:15:09.627Z,13.20
2022-08-17T07:17:47.869Z,13.40
2022-08-17T07:20:20.378Z,14.45
2022-08-17T07:23:00.149Z,14.80
2022-08-17T07:25:49.486Z,13.95
2022-08-17T07:28:23.093Z,14.27
2022-08-17T07:30:53.708Z,15.18
2022-08-17T07:33:26.544Z,15.50
2022-08-17T07:35:53.976Z,14.23
2022-08-17T07:38:29.412Z,17.45
2022-08-17T07:41:05.330Z,17.05
2022-08-17T07:43:48.402Z,16.73
2022-08-17T07:46:41.290Z,18.33
2022-08-17T07:49:10.436Z,16.80
2022-08-17T07:51:45.532Z,20.50
2022-08-17T07:54:40.400Z,17.77
2022-08-17T07:57:13.004Z,15.52
2022-08-17T07:59:43.291Z,18.52
2022-08-17T08:02:38.693Z,17.20
2022-08-17T08:05:12.952Z,18.73
2022-08-17T08:07:53.040Z,18.17
2022-08-17T08:10:27.773Z,18.33
2022-08-17T08:13:14.378Z,19.42
2022-08-17T08:15:45.197Z,17.60
2022-08-17T08:18:54.995Z,16.38
2022-08-17T08:21:33.111Z,15.30
2022-08-17T08:24:09.736Z,13.93
2022-08-17T08:27:08.007Z,11.70
2022-08-17T08:30:04.729Z,13.00
2022-08-17T08:33:12.149Z,12.10
2022-08-17T08:35:58.501Z,11.10
2022-08-17T08:38:53.697Z,9.13
2022-08-17T08:41:34.451Z,9.85
2022-08-17T08:44:59.770Z,9.37
2022-08-17T08:47:52.132Z,10.70
2022-08-17T08:50:30.294Z,9.68
2022-08-17T08:53:14.824Z,9.70
2022-08-17T08:56:23.946Z,10.10
2022-08-17T08:58:53.253Z,9.53
2022-08-17T09:01:22.872Z,10.85
2022-08-17T09:04:28.737Z,10.43
2022-08-17T09:07:01.255Z,13.43
2022-08-17T09:09:46.691Z,9.13
2022-08-17T09:12:44.362Z,8.17
2022-08-17T09:15:18.156Z,9.73
2022-08-17T09:18:14.626Z,9.13
2022-08-17T09:20:50.414Z,8.05
2022-08-17T09:23:59.979Z,10.02
2022-08-17T09:26:39.604Z,9.30
2022-08-17T09:29:14.597Z,10.30
2022-08-17T09:31:55.100Z,9.73
2022-08-17T09:34:33.648Z,11.60
2022-08-17T09:37:53.534Z,11.02
2022-08-17T09:40:29.292Z,10.90
2022-08-17T09:43:07.814Z,11.63
2022-08-17T09:45:51.064Z,12.45
2022-08-17T09:48:29.340Z,12.20
2022-08-17T09:51:07.630Z,13.77
2022-08-17T09:53:38.625Z,12.30
2022-08-17T09:56:47.050Z,15.70
2022-08-17T10:00:13.214Z,12.13
2022-08-17T10:06:57.675Z,12.77
2022-08-17T10:10:04.644Z,13.03
2022-08-17T10:12:59.725Z,16.80
2022-08-17T10:15:48.202Z,12.30
2022-08-17T10:18:37.669Z,12.75
2022-08-17T10:21:30.349Z,12.45
2022-08-17T10:24:30.729Z,12.80
2022-08-17T10:27:01.421Z,10.98
2022-08-17T10:29:56.389Z,11.35
2022-08-17T10:32:33.578Z,11.00
2022-08-17T10:35:18.843Z,11.60
2022-08-17T10:37:48.276Z,14.43
2022-08-17T10:40:24.611Z,12.65
2022-08-17T10:43:10.668Z,13.35
2022-08-17T10:45:48.989Z,10.63
2022-08-17T10:48:37.601Z,13.32
2022-08-17T10:51:07.647Z,11.73
2022-08-17T10:53:40.685Z,12.80
2022-08-17T10:56:13.230Z,11.88
2022-08-17T10:58:55.912Z,13.85
2022-08-17T11:01:58.296Z,12.05
2022-08-17T11:04:30.137Z,11.87
2022-08-17T11:07:30.621Z,14.93
2022-08-17T11:10:05.881Z,13.38
2022-08-17T11:12:50.216Z,15.05
2022-08-17T11:16:08.273Z,16.00
2022-08-17T11:19:17.630Z,14.23
2022-08-17T11:22:01.621Z,16.88
2022-08-17T11:24:31.321Z,17.90
2022-08-17T11:27:19.804Z,18.17
2022-08-17T11:29:53.689Z,18.73
2022-08-17T11:32:32.543Z,17.90
2022-08-17T11:35:55.032Z,17.17
2022-08-17T11:38:24.968Z,20.90
2022-08-17T11:41:16.292Z,20.80
2022-08-17T11:43:57.784Z,21.55
2022-08-17T11:47:22.209Z,21.13
2022-08-17T11:53:46.042Z,22.63
2022-08-17T11:56:51.798Z,21.58
2022-08-17T11:59:32.633Z,22.40
2022-08-17T12:02:31.585Z,22.83
2022-08-17T12:05:17.246Z,25.83
2022-08-17T12:07:49.298Z,24.23
2022-08-17T12:10:21.479Z,23.58
2022-08-17T12:13:10.488Z,23.98
2022-08-17T12:15:43.183Z,23.47
2022-08-17T12:18:33.546Z,27.02
2022-08-17T12:21:13.332Z,21.73
2022-08-17T12:23:50.158Z,23.67
2022-08-17T12:26:36.154Z,21.67
2022-08-17T12:29:18.413Z,23.93
2022-08-17T12:32:17.693Z,23.60
2022-08-17T12:34:46.821Z,26.35
2022-08-17T12:37:27.396Z,23.88
2022-08-17T12:40:18.910Z,25.05
2022-08-17T12:42:55.940Z,26.03
2022-08-17T12:46:01.260Z,24.67
2022-08-17T12:48:59.029Z,28.45
2022-08-17T12:51:26.748Z,24.42
2022-08-17T12:57:59.734Z,22.57
2022-08-17T13:00:32.416Z,24.52
2022-08-17T13:03:02.575Z,25.08
2022-08-17T13:05:35.547Z,24.13
2022-08-17T13:08:13.403Z,26.25
2022-08-17T13:10:40.103Z,24.17
2022-08-17T13:13:42.701Z,25.35
2022-08-17T13:16:22.600Z,25.73
2022-08-17T13:19:39.857Z,25.23
2022-08-17T13:22:12.760Z,26.02
2022-08-17T13:24:53.004Z,27.07
2022-08-17T13:27:27.565Z,25.70
2022-08-17T13:29:59.701Z,26.73
2022-08-17T13:32:36.352Z,26.90
2022-08-17T13:35:32.433Z,27.10
2022-08-17T13:38:13.071Z,28.07
2022-08-17T13:40:53.167Z,27.02
2022-08-17T13:43:44.556Z,29.17
2022-08-17T13:46:27.014Z,29.17
2022-08-17T13:49:09.857Z,27.70
2022-08-17T13:51:44.038Z,31.53
2022-08-17T13:54:35.201Z,27.00
2022-08-17T13:57:21.550Z,28.83
2022-08-17T13:59:54.218Z,31.58
2022-08-17T14:02:28.254Z,31.10
2022-08-17T14:04:56.987Z,31.63
2022-08-17T14:07:30.737Z,30.00
2022-08-17T14:10:04.372Z,28.83
2022-08-17T14:12:34.932Z,27.70
2022-08-17T14:15:02.354Z,28.05
2022-08-17T14:17:29.491Z,27.20
2022-08-17T14:19:56.187Z,32.38
2022-08-17T14:22:27.468Z,31.02
2022-08-17T14:24:57.081Z,27.63
2022-08-17T14:27:26.261Z,29.88
2022-08-17T14:29:57.962Z,29.70
2022-08-17T14:32:32.966Z,25.48
2022-08-17T14:35:00.742Z,28.40
2022-08-17T14:37:29.315Z,27.98
2022-08-17T14:39:58.559Z,31.23
2022-08-17T14:42:27.510Z,27.30
2022-08-17T14:44:55.309Z,32.13
2022-08-17T14:47:22.577Z,30.27
2022-08-17T14:49:49.137Z,30.35
2022-08-17T14:52:18.286Z,31.00
2022-08-17T14:54:45.885Z,27.07
2022-08-17T14:57:25.843Z,30.50
2022-08-17T14:59:59.256Z,32.88
2022-08-17T15:02:30.924Z,32.65
2022-08-17T15:05:05.233Z,29.60
2022-08-17T15:07:31.893Z,29.57
2022-08-17T15:10:02.370Z,35.30
2022-08-17T15:12:34.565Z,31.98
2022-08-17T15:15:04.430Z,29.58
2022-08-17T15:17:45.254Z,33.75
2022-08-17T15:20:22.782Z,30.30
2022-08-17T15:22:50.210Z,31.13
2022-08-17T15:25:19.007Z,28.70
2022-08-17T15:27:45.589Z,28.08
2022-08-17T15:30:12.332Z,33.85
2022-08-17T15:32:40.853Z,28.97
2022-08-17T15:35:11.733Z,27.90
2022-08-17T15:37:40.208Z,28.35
2022-08-17T15:40:08.780Z,30.08
2022-08-17T15:42:35.656Z,29.05
2022-08-17T15:45:12.351Z,24.53
2022-08-17T15:47:38.990Z,27.50
2022-08-17T15:50:08.012Z,26.40
2022-08-17T15:52:40.406Z,26.83
2022-08-17T15:55:11.623Z,25.60
2022-08-17T15:57:38.236Z,26.17
2022-08-17T16:00:06.581Z,30.63
2022-08-17T16:03:45.811Z,23.00
2022-08-17T16:05:25.203Z,23.90
2022-08-17T16:07:53.697Z,21.17
2022-08-17T16:10:21.005Z,21.80
2022-08-17T16:12:49.808Z,23.23
2022-08-17T16:15:18.020Z,23.23
2022-08-17T16:17:52.971Z,21.25
2022-08-17T16:20:21.093Z,22.75
2022-08-17T16:22:50.324Z,18.57
2022-08-17T16:25:52.078Z,19.15
2022-08-17T16:28:54.260Z,21.35
2022-08-17T16:31:21.007Z,20.83
2022-08-17T16:34:16.195Z,20.27
2022-08-17T16:36:53.561Z,18.93
2022-08-17T16:39:24.240Z,24.70
2022-08-17T16:41:50.722Z,25.05
2022-08-17T16:44:21.998Z,22.92
2022-08-17T16:46:54.658Z,22.00
2022-08-17T16:49:35.773Z,21.30
2022-08-17T16:52:06.285Z,23.05
2022-08-17T16:54:33.429Z,22.48
2022-08-17T16:57:00.203Z,23.55
2022-08-17T17:00:13.006Z,26.08
2022-08-17T17:02:43.148Z,25.70
2022-08-17T17:05:22.520Z,25.27
2022-08-17T17:08:44.723Z,28.00
2022-08-17T17:11:15.684Z,28.42
2022-08-17T17:14:05.368Z,26.63
2022-08-17T17:16:41.667Z,26.53
2022-08-17T17:19:34.493Z,28.63
2022-08-17T17:22:22.975Z,27.20
2022-08-17T17:25:13.872Z,27.25
2022-08-17T17:28:08.169Z,26.23
2022-08-17T17:31:11.050Z,26.47
2022-08-17T17:33:42.813Z,25.90
2022-08-17T17:36:40.543Z,27.95
2022-08-17T17:39:12.397Z,24.35
2022-08-17T17:41:51.851Z,27.25
2022-08-17T17:44:25.856Z,28.93
2022-08-17T17:46:57.140Z,29.55
2022-08-17T17:49:27.112Z,27.42
2022-08-17T17:52:20.733Z,26.55
2022-08-17T17:54:58.421Z,27.88
2022-08-17T17:57:45.406Z,29.37
2022-08-17T18:00:30.552Z,26.48
2022-08-17T18:03:04.533Z,29.33
2022-08-17T18:05:44.444Z,27.90
2022-08-17T18:08:34.752Z,26.88
2022-08-17T18:11:41.533Z,26.87
2022-08-17T18:14:22.532Z,27.58
2022-08-17T18:16:55.065Z,28.95
2022-08-17T18:19:25.084Z,30.35
2022-08-17T18:22:02.197Z,28.00
2022-08-17T18:24:38.486Z,33.10
2022-08-17T18:27:27.932Z,32.58
2022-08-17T18:30:12.699Z,31.23
2022-08-17T18:32:46.948Z,28.33
2022-08-17T18:35:15.960Z,32.70
2022-08-17T18:37:47.136Z,31.33
2022-08-17T18:40:32.037Z,30.80
2022-08-17T18:43:11.978Z,31.85
2022-08-17T18:45:44.242Z,29.00
2022-08-17T18:48:22.548Z,31.27
2022-08-17T18:50:53.303Z,29.57
2022-08-17T18:53:40.778Z,28.60
2022-08-17T18:56:30.526Z,30.80
2022-08-17T18:59:10.240Z,27.83
2022-08-17T19:01:42.027Z,31.90
2022-08-17T19:05:00.746Z,32.67
2022-08-17T19:07:37.993Z,27.70
2022-08-17T19:10:21.097Z,30.67
2022-08-17T19:12:53.156Z,29.48
2022-08-17T19:15:43.741Z,34.03
2022-08-17T19:18:16.890Z,28.10
2022-08-17T19:20:48.221Z,31.50
2022-08-17T19:23:24.832Z,31.95
2022-08-17T19:25:54.730Z,30.60
2022-08-17T19:28:36.935Z,32.53
2022-08-17T19:31:28.380Z,30.30
2022-08-17T19:34:04.315Z,28.13
2022-08-17T19:36:57.034Z,30.40
2022-08-17T19:40:02.657Z,29.60
2022-08-17T19:42:49.757Z,30.33
2022-08-17T19:45:49.722Z,25.97
2022-08-17T19:48:48.295Z,26.73
2022-08-17T19:51:43.658Z,31.17
2022-08-17T19:54:40.231Z,26.65
2022-08-17T19:57:38.154Z,30.02
2022-08-17T20:00:13.562Z,27.87
2022-08-17T20:03:06.295Z,26.35
2022-08-17T20:06:08.798Z,26.52
2022-08-17T20:08:52.020Z,29.08
2022-08-17T20:11:58.729Z,27.67
2022-08-17T20:14:36.054Z,25.87
2022-08-17T20:17:12.527Z,26.17
2022-08-17T20:19:58.321Z,26.50
2022-08-17T20:22:51.816Z,24.17
2022-08-17T20:25:38.044Z,24.95
2022-08-17T20:28:24.150Z,24.17
2022-08-17T20:30:52.508Z,25.83
2022-08-17T20:33:45.976Z,24.35
2022-08-17T20:37:04.425Z,28.92
2022-08-17T20:39:42.774Z,22.55
2022-08-17T20:42:15.401Z,25.87
2022-08-17T20:45:42.233Z,25.00
2022-08-17T20:48:37.589Z,24.98
2022-08-17T20:51:17.444Z,23.27
2022-08-17T20:54:26.796Z,25.90
2022-08-17T20:56:57.709Z,22.67
2022-08-17T20:59:31.652Z,23.58
2022-08-17T21:02:07.224Z,23.13
2022-08-17T21:05:07.244Z,23.08
2022-08-17T21:07:54.495Z,22.30
2022-08-17T21:10:36.389Z,22.80
2022-08-17T21:13:45.342Z,20.65
2022-08-17T21:16:33.684Z,23.00
2022-08-17T21:19:16.960Z,23.73
2022-08-17T21:22:11.055Z,22.70
2022-08-17T21:25:07.866Z,20.80
2022-08-17T21:27:50.049Z,21.55
2022-08-17T21:30:58.396Z,21.08
2022-08-17T21:33:32.188Z,25.17
2022-08-17T21:36:12.751Z,23.40
2022-08-17T21:38:46.824Z,17.90
2022-08-17T21:41:22.838Z,19.27
2022-08-17T21:43:52.112Z,21.75
2022-08-17T21:46:36.993Z,19.45
2022-08-17T21:49:13.820Z,19.65
2022-08-17T21:51:49.969Z,18.57
2022-08-17T21:54:48.468Z,17.02
2022-08-17T21:57:20.313Z,18.90
2022-08-17T21:59:53.308Z,17.23
2022-08-17T22:02:24.004Z,16.42
2022-08-17T22:05:11.564Z,16.20
2022-08-17T22:07:48.413Z,15.40
2022-08-17T22:10:30.433Z,17.55
2022-08-17T22:13:16.890Z,16.58
2022-08-17T22:15:48.461Z,13.80
2022-08-17T22:18:33.588Z,15.67
2022-08-17T22:21:04.689Z,15.25
2022-08-17T22:23:54.766Z,13.60
2022-08-17T22:26:25.321Z,15.40
2022-08-17T22:28:56.408Z,15.18
2022-08-17T22:31:46.332Z,15.23
2022-08-17T22:34:15.080Z,15.50
2022-08-17T22:36:43.205Z,14.93
2022-08-17T22:39:09.628Z,13.98
2022-08-17T22:41:48.315Z,12.25
2022-08-17T22:44:37.778Z,13.73
2022-08-17T22:47:16.334Z,12.90
2022-08-17T22:49:59.882Z,18.77
2022-08-17T22:52:58.777Z,13.07
2022-08-17T22:55:57.866Z,12.38
2022-08-17T22:58:43.366Z,14.20
2022-08-17T23:01:35.424Z,12.15
2022-08-17T23:04:09.371Z,11.95
2022-08-17T23:06:38.300Z,12.18
2022-08-17T23:09:14.781Z,14.68
2022-08-17T23:11:49.756Z,11.70
2022-08-17T23:14:21.493Z,14.57
2022-08-17T23:16:50.886Z,13.50
2022-08-17T23:19:21.185Z,11.25
2022-08-17T23:21:49.136Z,15.43
2022-08-17T23:24:21.702Z,11.53
2022-08-17T23:26:49.297Z,11.10
2022-08-17T23:29:15.937Z,11.50
2022-08-17T23:31:43.447Z,13.63
2022-08-17T23:34:15.082Z,10.95
2022-08-17T23:36:53.139Z,10.67
2022-08-17T23:39:27.344Z,14.27
2022-08-17T23:41:55.465Z,11.40
2022-08-17T23:44:24.793Z,10.98
2022-08-17T23:46:54.143Z,11.00
2022-08-17T23:49:20.678Z,12.00
2022-08-17T23:51:48.596Z,13.30
2022-08-17T23:54:47.114Z,11.43
2022-08-17T23:57:17.461Z,13.88
2022-08-17T23:59:44.639Z,12.05
